Uvalde Research's Hourly Summary for Sunday, February 12, 2017
Hour Temp
(f)
RH
(%)
Solar Rad.
(MJ/m2)
Rainfall
(in)
Wind
(mph)
2/12/2017 12:00 AM 0 0 0 0 0
2/12/2017 1:00 AM 66 74 0 0 2.06
2/12/2017 2:00 AM 64 81 0 0 1.52
2/12/2017 3:00 AM 63 87 0 0 1.73
2/12/2017 4:00 AM 62 92 0 0 1.9
2/12/2017 5:00 AM 62 94 0 0 2.33
2/12/2017 6:00 AM 61 96 0 0 2.4
2/12/2017 7:00 AM 61 98 0 0 1.93
2/12/2017 8:00 AM 62 99 0.03 0 1.87
2/12/2017 9:00 AM 63 100 0.15 0 2.61
2/12/2017 10:00 AM 65 100 0.31 0 2.03
2/12/2017 11:00 AM 67 93 0.64 0 3.46
2/12/2017 12:00 PM 72 76 1.75 0 4.85
2/12/2017 1:00 PM 75 69 1.88 0 5.46
2/12/2017 2:00 PM 77 63 2.06 0 5.32
2/12/2017 3:00 PM 79 57 2.02 0 5.18
2/12/2017 4:00 PM 80 51 1.64 0 4.84
2/12/2017 5:00 PM 80 50 0.83 0 4.27
2/12/2017 6:00 PM 79 50 0.23 0 2.98
2/12/2017 7:00 PM 77 54 0.02 0 2.19
2/12/2017 8:00 PM 75 59 0 0 3.13
2/12/2017 9:00 PM 71 64 0 0 3.95
2/12/2017 10:00 PM 69 63 0 0 3.59
2/12/2017 11:00 PM 68 61 0 0 3.56
Data Summary 66 72 11.56 0.00 3.05